sensor_id;sensor_type;location;lat;lon;timestamp;temperature;humidity
3186;DHT22;1604;53.700;10.252;2023-07-29T00:02:31;17.10;99.90
3186;DHT22;1604;53.700;10.252;2023-07-29T00:05:34;17.10;99.90
3186;DHT22;1604;53.700;10.252;2023-07-29T00:08:39;17.10;99.90
3186;DHT22;1604;53.700;10.252;2023-07-29T00:11:42;17.10;99.90
3186;DHT22;1604;53.700;10.252;2023-07-29T00:14:44;17.10;99.90
3186;DHT22;1604;53.700;10.252;2023-07-29T00:17:46;17.10;99.90
3186;DHT22;1604;53.700;10.252;2023-07-29T00:20:48;17.00;99.90
3186;DHT22;1604;53.700;10.252;2023-07-29T00:23:50;17.00;99.90
3186;DHT22;1604;53.700;10.252;2023-07-29T00:26:53;17.00;99.90
3186;DHT22;1604;53.700;10.252;2023-07-29T00:29:56;16.90;99.90
3186;DHT22;1604;53.700;10.252;2023-07-29T00:32:58;16.90;99.90
3186;DHT22;1604;53.700;10.252;2023-07-29T00:36:00;16.80;99.90
3186;DHT22;1604;53.700;10.252;2023-07-29T00:39:03;16.80;99.90
3186;DHT22;1604;53.700;10.252;2023-07-29T00:42:08;16.80;99.90
3186;DHT22;1604;53.700;10.252;2023-07-29T00:45:10;16.70;99.90
3186;DHT22;1604;53.700;10.252;2023-07-29T00:48:12;16.70;99.90
3186;DHT22;1604;53.700;10.252;2023-07-29T00:51:14;16.60;99.90
3186;DHT22;1604;53.700;10.252;2023-07-29T00:54:16;16.60;99.90
3186;DHT22;1604;53.700;10.252;2023-07-29T00:57:20;16.50;99.90
3186;DHT22;1604;53.700;10.252;2023-07-29T01:00:24;16.40;99.90
3186;DHT22;1604;53.700;10.252;2023-07-29T01:03:26;16.40;99.90
3186;DHT22;1604;53.700;10.252;2023-07-29T01:06:36;16.40;99.90
3186;DHT22;1604;53.700;10.252;2023-07-29T01:09:51;16.30;99.90
3186;DHT22;1604;53.700;10.252;2023-07-29T01:13:05;16.30;99.90
3186;DHT22;1604;53.700;10.252;2023-07-29T01:16:11;16.30;99.90
3186;DHT22;1604;53.700;10.252;2023-07-29T01:19:26;16.20;99.90
3186;DHT22;1604;53.700;10.252;2023-07-29T01:22:32;16.20;99.90
3186;DHT22;1604;53.700;10.252;2023-07-29T01:25:36;16.20;99.90
3186;DHT22;1604;53.700;10.252;2023-07-29T01:28:39;16.30;99.90
3186;DHT22;1604;53.700;10.252;2023-07-29T01:31:44;16.20;99.90
3186;DHT22;1604;53.700;10.252;2023-07-29T01:34:50;16.20;99.90
3186;DHT22;1604;53.700;10.252;2023-07-29T01:37:57;16.20;99.90
3186;DHT22;1604;53.700;10.252;2023-07-29T01:41:03;16.20;99.90
3186;DHT22;1604;53.700;10.252;2023-07-29T01:44:06;16.20;99.90
3186;DHT22;1604;53.700;10.252;2023-07-29T01:47:08;16.20;99.90
3186;DHT22;1604;53.700;10.252;2023-07-29T01:50:12;16.20;99.90
3186;DHT22;1604;53.700;10.252;2023-07-29T01:53:14;16.30;99.90
3186;DHT22;1604;53.700;10.252;2023-07-29T01:56:17;16.30;99.90
3186;DHT22;1604;53.700;10.252;2023-07-29T01:59:19;16.30;99.90
3186;DHT22;1604;53.700;10.252;2023-07-29T02:02:21;16.30;99.90
3186;DHT22;1604;53.700;10.252;2023-07-29T02:05:23;16.30;99.90
3186;DHT22;1604;53.700;10.252;2023-07-29T02:08:26;16.30;99.90
3186;DHT22;1604;53.700;10.252;2023-07-29T02:11:29;16.40;99.90
3186;DHT22;1604;53.700;10.252;2023-07-29T02:14:31;16.40;99.90
3186;DHT22;1604;53.700;10.252;2023-07-29T02:17:33;16.40;99.90
3186;DHT22;1604;53.700;10.252;2023-07-29T02:20:35;16.50;99.90
3186;DHT22;1604;53.700;10.252;2023-07-29T02:23:37;16.50;99.90
3186;DHT22;1604;53.700;10.252;2023-07-29T02:26:41;16.50;99.90
3186;DHT22;1604;53.700;10.252;2023-07-29T02:36:04;16.90;99.90
3186;DHT22;1604;53.700;10.252;2023-07-29T02:39:06;17.10;99.90
3186;DHT22;1604;53.700;10.252;2023-07-29T02:42:09;17.20;99.90
3186;DHT22;1604;53.700;10.252;2023-07-29T02:45:11;17.30;99.90
3186;DHT22;1604;53.700;10.252;2023-07-29T02:48:13;17.30;99.90
3186;DHT22;1604;53.700;10.252;2023-07-29T02:51:15;17.40;99.90
3186;DHT22;1604;53.700;10.252;2023-07-29T02:54:20;17.40;99.90
3186;DHT22;1604;53.700;10.252;2023-07-29T02:57:24;17.30;99.90
3186;DHT22;1604;53.700;10.252;2023-07-29T03:00:26;17.30;99.90
3186;DHT22;1604;53.700;10.252;2023-07-29T03:03:28;17.30;99.90
3186;DHT22;1604;53.700;10.252;2023-07-29T03:06:30;17.30;99.90
3186;DHT22;1604;53.700;10.252;2023-07-29T03:09:32;17.30;99.90
3186;DHT22;1604;53.700;10.252;2023-07-29T03:12:36;17.30;99.90
3186;DHT22;1604;53.700;10.252;2023-07-29T03:15:38;17.40;99.90
3186;DHT22;1604;53.700;10.252;2023-07-29T03:18:40;17.40;99.90
3186;DHT22;1604;53.700;10.252;2023-07-29T03:21:42;17.40;99.90
3186;DHT22;1604;53.700;10.252;2023-07-29T03:24:44;17.40;99.90
3186;DHT22;1604;53.700;10.252;2023-07-29T03:27:47;17.40;99.90
3186;DHT22;1604;53.700;10.252;2023-07-29T03:30:50;17.40;99.90
3186;DHT22;1604;53.700;10.252;2023-07-29T03:33:52;17.40;99.90
3186;DHT22;1604;53.700;10.252;2023-07-29T03:36:54;17.40;99.90
3186;DHT22;1604;53.700;10.252;2023-07-29T03:39:56;17.40;99.90
3186;DHT22;1604;53.700;10.252;2023-07-29T03:42:59;17.40;99.90
3186;DHT22;1604;53.700;10.252;2023-07-29T03:46:01;17.40;99.90
3186;DHT22;1604;53.700;10.252;2023-07-29T03:49:03;17.40;99.90
3186;DHT22;1604;53.700;10.252;2023-07-29T03:52:05;17.40;99.90
3186;DHT22;1604;53.700;10.252;2023-07-29T03:55:08;17.40;99.90
3186;DHT22;1604;53.700;10.252;2023-07-29T03:58:12;17.40;99.90
3186;DHT22;1604;53.700;10.252;2023-07-29T04:01:14;17.40;99.90
3186;DHT22;1604;53.700;10.252;2023-07-29T04:04:15;17.40;99.90
3186;DHT22;1604;53.700;10.252;2023-07-29T04:07:17;17.40;99.90
3186;DHT22;1604;53.700;10.252;2023-07-29T04:10:19;17.40;99.90
3186;DHT22;1604;53.700;10.252;2023-07-29T04:13:23;17.50;99.90
3186;DHT22;1604;53.700;10.252;2023-07-29T04:16:25;17.60;99.90
3186;DHT22;1604;53.700;10.252;2023-07-29T04:19:27;17.60;99.90
3186;DHT22;1604;53.700;10.252;2023-07-29T04:22:28;17.60;99.90
3186;DHT22;1604;53.700;10.252;2023-07-29T04:25:31;17.60;99.90
3186;DHT22;1604;53.700;10.252;2023-07-29T04:28:36;17.70;99.90
3186;DHT22;1604;53.700;10.252;2023-07-29T04:31:38;17.80;99.90
3186;DHT22;1604;53.700;10.252;2023-07-29T04:34:40;17.80;99.90
3186;DHT22;1604;53.700;10.252;2023-07-29T04:37:42;17.80;99.90
3186;DHT22;1604;53.700;10.252;2023-07-29T04:40:44;17.80;99.90
3186;DHT22;1604;53.700;10.252;2023-07-29T04:43:47;17.80;99.90
3186;DHT22;1604;53.700;10.252;2023-07-29T04:46:50;17.80;99.90
3186;DHT22;1604;53.700;10.252;2023-07-29T04:49:52;17.90;99.90
3186;DHT22;1604;53.700;10.252;2023-07-29T04:52:54;17.90;99.90
3186;DHT22;1604;53.700;10.252;2023-07-29T04:55:55;18.00;99.90
3186;DHT22;1604;53.700;10.252;2023-07-29T04:58:59;18.00;99.90
3186;DHT22;1604;53.700;10.252;2023-07-29T05:02:01;18.00;99.90
3186;DHT22;1604;53.700;10.252;2023-07-29T05:05:03;18.00;99.90
3186;DHT22;1604;53.700;10.252;2023-07-29T05:08:06;18.00;99.90
3186;DHT22;1604;53.700;10.252;2023-07-29T05:11:08;18.00;99.90
3186;DHT22;1604;53.700;10.252;2023-07-29T05:14:12;18.10;99.90
3186;DHT22;1604;53.700;10.252;2023-07-29T05:17:14;18.10;99.90
3186;DHT22;1604;53.700;10.252;2023-07-29T05:20:16;18.20;99.90
3186;DHT22;1604;53.700;10.252;2023-07-29T05:23:18;18.20;99.90
3186;DHT22;1604;53.700;10.252;2023-07-29T05:26:20;18.30;99.90
3186;DHT22;1604;53.700;10.252;2023-07-29T05:29:23;18.30;99.90
3186;DHT22;1604;53.700;10.252;2023-07-29T05:32:25;18.40;99.90
3186;DHT22;1604;53.700;10.252;2023-07-29T05:35:27;18.40;99.90
3186;DHT22;1604;53.700;10.252;2023-07-29T05:38:29;18.40;99.90
3186;DHT22;1604;53.700;10.252;2023-07-29T05:41:31;18.50;99.90
3186;DHT22;1604;53.700;10.252;2023-07-29T05:44:34;18.50;99.90
3186;DHT22;1604;53.700;10.252;2023-07-29T05:47:36;18.60;99.90
3186;DHT22;1604;53.700;10.252;2023-07-29T05:50:38;18.60;99.90
3186;DHT22;1604;53.700;10.252;2023-07-29T05:53:40;18.80;99.90
3186;DHT22;1604;53.700;10.252;2023-07-29T05:56:42;18.80;99.90
3186;DHT22;1604;53.700;10.252;2023-07-29T05:59:58;18.90;99.90
3186;DHT22;1604;53.700;10.252;2023-07-29T06:03:03;18.90;99.90
3186;DHT22;1604;53.700;10.252;2023-07-29T06:06:05;19.00;99.90
3186;DHT22;1604;53.700;10.252;2023-07-29T06:09:07;19.10;99.90
3186;DHT22;1604;53.700;10.252;2023-07-29T06:12:09;19.20;99.90
3186;DHT22;1604;53.700;10.252;2023-07-29T06:15:12;19.20;99.80
3186;DHT22;1604;53.700;10.252;2023-07-29T06:18:14;19.30;99.70
3186;DHT22;1604;53.700;10.252;2023-07-29T06:21:16;19.40;99.60
3186;DHT22;1604;53.700;10.252;2023-07-29T06:24:19;19.50;99.40
3186;DHT22;1604;53.700;10.252;2023-07-29T06:27:21;19.50;99.40
3186;DHT22;1604;53.700;10.252;2023-07-29T06:30:24;19.60;99.30
3186;DHT22;1604;53.700;10.252;2023-07-29T06:33:26;19.60;99.30
3186;DHT22;1604;53.700;10.252;2023-07-29T06:36:28;19.70;99.20
3186;DHT22;1604;53.700;10.252;2023-07-29T06:39:30;19.70;99.30
3186;DHT22;1604;53.700;10.252;2023-07-29T06:42:32;19.80;99.10
3186;DHT22;1604;53.700;10.252;2023-07-29T06:45:35;19.90;99.10
3186;DHT22;1604;53.700;10.252;2023-07-29T06:48:37;19.90;99.10
3186;DHT22;1604;53.700;10.252;2023-07-29T06:51:39;19.90;99.10
3186;DHT22;1604;53.700;10.252;2023-07-29T06:54:41;20.00;99.10
3186;DHT22;1604;53.700;10.252;2023-07-29T06:57:43;20.10;99.10
3186;DHT22;1604;53.700;10.252;2023-07-29T07:00:46;20.10;99.10
3186;DHT22;1604;53.700;10.252;2023-07-29T07:03:48;20.10;99.10
3186;DHT22;1604;53.700;10.252;2023-07-29T07:06:50;20.20;99.10
3186;DHT22;1604;53.700;10.252;2023-07-29T07:09:52;20.30;99.00
3186;DHT22;1604;53.700;10.252;2023-07-29T07:12:54;20.40;99.00
3186;DHT22;1604;53.700;10.252;2023-07-29T07:15:57;20.60;99.00
3186;DHT22;1604;53.700;10.252;2023-07-29T07:18:59;20.70;98.80
3186;DHT22;1604;53.700;10.252;2023-07-29T07:22:01;20.80;98.80
3186;DHT22;1604;53.700;10.252;2023-07-29T07:25:03;20.90;98.90
3186;DHT22;1604;53.700;10.252;2023-07-29T07:28:05;20.90;99.00
3186;DHT22;1604;53.700;10.252;2023-07-29T07:31:09;20.90;98.90
3186;DHT22;1604;53.700;10.252;2023-07-29T07:34:11;20.90;99.00
3186;DHT22;1604;53.700;10.252;2023-07-29T07:37:13;20.90;99.10
3186;DHT22;1604;53.700;10.252;2023-07-29T07:40:14;20.70;99.10
3186;DHT22;1604;53.700;10.252;2023-07-29T07:43:17;20.70;99.20
3186;DHT22;1604;53.700;10.252;2023-07-29T07:46:20;20.60;99.30
3186;DHT22;1604;53.700;10.252;2023-07-29T07:49:22;20.60;99.30
3186;DHT22;1604;53.700;10.252;2023-07-29T07:52:24;20.60;99.40
3186;DHT22;1604;53.700;10.252;2023-07-29T07:55:26;20.50;99.40
3186;DHT22;1604;53.700;10.252;2023-07-29T07:58:28;20.50;99.40
3186;DHT22;1604;53.700;10.252;2023-07-29T08:01:35;20.50;99.40
3186;DHT22;1604;53.700;10.252;2023-07-29T08:04:37;20.40;99.40
3186;DHT22;1604;53.700;10.252;2023-07-29T08:07:39;20.40;99.40
3186;DHT22;1604;53.700;10.252;2023-07-29T08:10:41;20.30;99.50
3186;DHT22;1604;53.700;10.252;2023-07-29T08:13:43;20.20;99.40
3186;DHT22;1604;53.700;10.252;2023-07-29T08:16:47;20.20;99.60
3186;DHT22;1604;53.700;10.252;2023-07-29T08:19:49;20.10;99.60
3186;DHT22;1604;53.700;10.252;2023-07-29T08:22:51;20.00;99.60
3186;DHT22;1604;53.700;10.252;2023-07-29T08:25:53;20.00;99.60
3186;DHT22;1604;53.700;10.252;2023-07-29T08:28:57;20.00;99.60
3186;DHT22;1604;53.700;10.252;2023-07-29T08:32:00;19.90;99.60
3186;DHT22;1604;53.700;10.252;2023-07-29T08:35:02;20.00;99.60
3186;DHT22;1604;53.700;10.252;2023-07-29T08:38:04;19.90;99.60
3186;DHT22;1604;53.700;10.252;2023-07-29T08:41:13;20.00;99.60
3186;DHT22;1604;53.700;10.252;2023-07-29T08:44:20;20.00;99.50
3186;DHT22;1604;53.700;10.252;2023-07-29T08:47:24;20.10;99.50
3186;DHT22;1604;53.700;10.252;2023-07-29T08:50:26;20.20;99.50
3186;DHT22;1604;53.700;10.252;2023-07-29T08:53:28;20.30;99.40
3186;DHT22;1604;53.700;10.252;2023-07-29T08:56:31;20.40;99.40
3186;DHT22;1604;53.700;10.252;2023-07-29T08:59:33;20.40;99.20
3186;DHT22;1604;53.700;10.252;2023-07-29T09:02:36;20.50;99.20
3186;DHT22;1604;53.700;10.252;2023-07-29T09:05:38;20.50;99.20
3186;DHT22;1604;53.700;10.252;2023-07-29T09:08:40;20.50;99.20
3186;DHT22;1604;53.700;10.252;2023-07-29T09:11:43;20.50;99.20
3186;DHT22;1604;53.700;10.252;2023-07-29T09:14:45;20.50;99.10
3186;DHT22;1604;53.700;10.252;2023-07-29T09:17:48;20.60;99.20
3186;DHT22;1604;53.700;10.252;2023-07-29T09:20:50;20.60;99.20
3186;DHT22;1604;53.700;10.252;2023-07-29T09:23:52;20.60;99.10
3186;DHT22;1604;53.700;10.252;2023-07-29T09:26:54;20.70;99.00
3186;DHT22;1604;53.700;10.252;2023-07-29T09:29:57;20.80;99.10
3186;DHT22;1604;53.700;10.252;2023-07-29T09:33:00;20.90;99.10
3186;DHT22;1604;53.700;10.252;2023-07-29T09:36:08;21.00;99.00
3186;DHT22;1604;53.700;10.252;2023-07-29T09:39:11;21.10;99.00
3186;DHT22;1604;53.700;10.252;2023-07-29T09:42:18;21.30;99.00
3186;DHT22;1604;53.700;10.252;2023-07-29T09:45:21;21.40;98.90
3186;DHT22;1604;53.700;10.252;2023-07-29T09:48:25;21.40;98.90
3186;DHT22;1604;53.700;10.252;2023-07-29T09:51:27;21.60;98.90
3186;DHT22;1604;53.700;10.252;2023-07-29T09:54:30;21.70;99.00
3186;DHT22;1604;53.700;10.252;2023-07-29T09:57:32;21.80;99.00
3186;DHT22;1604;53.700;10.252;2023-07-29T10:00:34;22.00;99.20
3186;DHT22;1604;53.700;10.252;2023-07-29T10:03:40;22.10;99.00
3186;DHT22;1604;53.700;10.252;2023-07-29T10:06:43;22.20;98.90
3186;DHT22;1604;53.700;10.252;2023-07-29T10:09:46;22.40;99.10
3186;DHT22;1604;53.700;10.252;2023-07-29T10:12:48;22.60;98.80
3186;DHT22;1604;53.700;10.252;2023-07-29T10:15:52;22.80;98.60
3186;DHT22;1604;53.700;10.252;2023-07-29T10:18:57;23.20;98.70
3186;DHT22;1604;53.700;10.252;2023-07-29T10:22:00;23.40;98.70
3186;DHT22;1604;53.700;10.252;2023-07-29T10:25:04;23.60;98.50
3186;DHT22;1604;53.700;10.252;2023-07-29T10:28:07;23.70;98.20
3186;DHT22;1604;53.700;10.252;2023-07-29T10:31:09;23.90;98.40
3186;DHT22;1604;53.700;10.252;2023-07-29T10:34:14;24.00;97.70
3186;DHT22;1604;53.700;10.252;2023-07-29T10:37:16;24.20;97.20
3186;DHT22;1604;53.700;10.252;2023-07-29T10:40:19;24.20;97.00
3186;DHT22;1604;53.700;10.252;2023-07-29T10:43:25;24.20;96.80
3186;DHT22;1604;53.700;10.252;2023-07-29T10:46:34;24.30;97.30
3186;DHT22;1604;53.700;10.252;2023-07-29T10:49:40;24.70;96.00
3186;DHT22;1604;53.700;10.252;2023-07-29T10:52:42;24.80;96.50
3186;DHT22;1604;53.700;10.252;2023-07-29T10:55:44;24.90;95.80
3186;DHT22;1604;53.700;10.252;2023-07-29T10:58:46;24.90;94.10
3186;DHT22;1604;53.700;10.252;2023-07-29T11:01:51;24.90;94.10
3186;DHT22;1604;53.700;10.252;2023-07-29T11:04:56;24.90;93.90
3186;DHT22;1604;53.700;10.252;2023-07-29T11:07:58;24.90;93.50
3186;DHT22;1604;53.700;10.252;2023-07-29T11:11:04;25.10;93.60
3186;DHT22;1604;53.700;10.252;2023-07-29T11:14:07;25.20;92.00
3186;DHT22;1604;53.700;10.252;2023-07-29T11:17:09;25.10;92.10
3186;DHT22;1604;53.700;10.252;2023-07-29T11:20:14;24.90;92.20
3186;DHT22;1604;53.700;10.252;2023-07-29T11:23:16;24.80;93.20
3186;DHT22;1604;53.700;10.252;2023-07-29T11:26:18;24.80;93.20
3186;DHT22;1604;53.700;10.252;2023-07-29T11:29:20;24.70;91.70
3186;DHT22;1604;53.700;10.252;2023-07-29T11:32:22;24.60;92.10
3186;DHT22;1604;53.700;10.252;2023-07-29T11:35:26;24.50;93.00
3186;DHT22;1604;53.700;10.252;2023-07-29T11:38:28;24.50;93.60
3186;DHT22;1604;53.700;10.252;2023-07-29T11:41:33;24.60;92.90
3186;DHT22;1604;53.700;10.252;2023-07-29T11:44:35;24.80;93.80
3186;DHT22;1604;53.700;10.252;2023-07-29T11:47:37;25.00;92.00
3186;DHT22;1604;53.700;10.252;2023-07-29T11:50:41;25.00;92.80
3186;DHT22;1604;53.700;10.252;2023-07-29T11:53:43;25.10;92.20
3186;DHT22;1604;53.700;10.252;2023-07-29T11:56:46;25.10;91.50
3186;DHT22;1604;53.700;10.252;2023-07-29T11:59:48;25.20;91.10
3186;DHT22;1604;53.700;10.252;2023-07-29T12:02:51;25.40;91.00
3186;DHT22;1604;53.700;10.252;2023-07-29T12:05:54;25.70;91.30
3186;DHT22;1604;53.700;10.252;2023-07-29T12:08:56;25.90;89.20
3186;DHT22;1604;53.700;10.252;2023-07-29T12:11:58;26.10;91.00
3186;DHT22;1604;53.700;10.252;2023-07-29T12:15:01;26.40;87.70
3186;DHT22;1604;53.700;10.252;2023-07-29T12:18:03;26.80;84.70
3186;DHT22;1604;53.700;10.252;2023-07-29T12:21:06;26.90;83.00
3186;DHT22;1604;53.700;10.252;2023-07-29T12:24:08;27.00;81.80
3186;DHT22;1604;53.700;10.252;2023-07-29T12:27:11;27.00;81.80
3186;DHT22;1604;53.700;10.252;2023-07-29T12:30:14;27.00;82.40
3186;DHT22;1604;53.700;10.252;2023-07-29T12:33:29;27.00;81.40
3186;DHT22;1604;53.700;10.252;2023-07-29T12:36:42;27.10;81.10
3186;DHT22;1604;53.700;10.252;2023-07-29T12:39:44;27.20;80.80
3186;DHT22;1604;53.700;10.252;2023-07-29T12:42:46;27.30;81.10
3186;DHT22;1604;53.700;10.252;2023-07-29T12:45:49;27.50;79.20
3186;DHT22;1604;53.700;10.252;2023-07-29T12:48:51;27.50;78.50
3186;DHT22;1604;53.700;10.252;2023-07-29T12:51:54;27.30;77.80
3186;DHT22;1604;53.700;10.252;2023-07-29T12:54:56;27.10;78.50
3186;DHT22;1604;53.700;10.252;2023-07-29T12:57:58;27.10;75.40
3186;DHT22;1604;53.700;10.252;2023-07-29T13:01:01;26.90;74.80
3186;DHT22;1604;53.700;10.252;2023-07-29T13:04:03;26.80;76.80
3186;DHT22;1604;53.700;10.252;2023-07-29T13:07:06;26.60;78.10
3186;DHT22;1604;53.700;10.252;2023-07-29T13:10:09;26.50;76.80
3186;DHT22;1604;53.700;10.252;2023-07-29T13:13:11;26.40;77.90
3186;DHT22;1604;53.700;10.252;2023-07-29T13:16:13;26.20;77.80
3186;DHT22;1604;53.700;10.252;2023-07-29T13:19:15;26.10;77.00
3186;DHT22;1604;53.700;10.252;2023-07-29T13:22:20;26.00;76.70
3186;DHT22;1604;53.700;10.252;2023-07-29T13:25:22;25.90;77.30
3186;DHT22;1604;53.700;10.252;2023-07-29T13:28:24;25.90;77.50
3186;DHT22;1604;53.700;10.252;2023-07-29T13:31:26;25.70;79.20
3186;DHT22;1604;53.700;10.252;2023-07-29T13:34:28;25.60;80.20
3186;DHT22;1604;53.700;10.252;2023-07-29T13:37:31;25.60;81.20
3186;DHT22;1604;53.700;10.252;2023-07-29T13:40:33;25.80;79.10
3186;DHT22;1604;53.700;10.252;2023-07-29T13:43:35;26.00;74.90
3186;DHT22;1604;53.700;10.252;2023-07-29T13:46:37;26.20;74.90
3186;DHT22;1604;53.700;10.252;2023-07-29T13:49:39;26.30;74.10
3186;DHT22;1604;53.700;10.252;2023-07-29T13:52:42;26.20;74.10
3186;DHT22;1604;53.700;10.252;2023-07-29T13:55:44;26.10;73.70
3186;DHT22;1604;53.700;10.252;2023-07-29T13:58:46;26.10;74.00
3186;DHT22;1604;53.700;10.252;2023-07-29T14:01:48;26.00;75.60
3186;DHT22;1604;53.700;10.252;2023-07-29T14:04:50;26.00;77.10
3186;DHT22;1604;53.700;10.252;2023-07-29T14:07:53;26.00;78.90
3186;DHT22;1604;53.700;10.252;2023-07-29T14:10:55;26.10;80.00
3186;DHT22;1604;53.700;10.252;2023-07-29T14:13:57;26.20;77.80
3186;DHT22;1604;53.700;10.252;2023-07-29T14:16:59;26.40;74.80
3186;DHT22;1604;53.700;10.252;2023-07-29T14:20:01;26.60;74.40
3186;DHT22;1604;53.700;10.252;2023-07-29T14:23:04;26.60;73.90
3186;DHT22;1604;53.700;10.252;2023-07-29T14:26:06;26.80;70.90
3186;DHT22;1604;53.700;10.252;2023-07-29T14:29:10;26.60;71.20
3186;DHT22;1604;53.700;10.252;2023-07-29T14:32:12;26.60;75.40
3186;DHT22;1604;53.700;10.252;2023-07-29T14:35:14;26.60;73.80
3186;DHT22;1604;53.700;10.252;2023-07-29T14:38:17;26.70;74.40
3186;DHT22;1604;53.700;10.252;2023-07-29T14:41:19;26.70;72.50
3186;DHT22;1604;53.700;10.252;2023-07-29T14:44:21;26.60;74.00
3186;DHT22;1604;53.700;10.252;2023-07-29T14:47:23;26.60;74.30
3186;DHT22;1604;53.700;10.252;2023-07-29T14:50:25;26.50;73.10
3186;DHT22;1604;53.700;10.252;2023-07-29T14:53:28;26.30;75.90
3186;DHT22;1604;53.700;10.252;2023-07-29T14:56:30;26.10;76.20
3186;DHT22;1604;53.700;10.252;2023-07-29T14:59:31;26.20;76.20
3186;DHT22;1604;53.700;10.252;2023-07-29T15:02:33;26.20;77.70
3186;DHT22;1604;53.700;10.252;2023-07-29T15:05:35;26.20;76.90
3186;DHT22;1604;53.700;10.252;2023-07-29T15:08:38;26.40;76.10
3186;DHT22;1604;53.700;10.252;2023-07-29T15:11:40;26.40;73.10
3186;DHT22;1604;53.700;10.252;2023-07-29T15:14:42;26.40;74.00
3186;DHT22;1604;53.700;10.252;2023-07-29T15:17:44;26.30;73.60
3186;DHT22;1604;53.700;10.252;2023-07-29T15:20:46;26.40;74.70
3186;DHT22;1604;53.700;10.252;2023-07-29T15:23:49;26.30;73.00
3186;DHT22;1604;53.700;10.252;2023-07-29T15:26:51;26.10;74.20
3186;DHT22;1604;53.700;10.252;2023-07-29T15:29:53;26.10;74.30
3186;DHT22;1604;53.700;10.252;2023-07-29T15:32:55;25.90;75.00
3186;DHT22;1604;53.700;10.252;2023-07-29T15:35:57;25.80;75.60
3186;DHT22;1604;53.700;10.252;2023-07-29T15:39:00;25.70;76.50
3186;DHT22;1604;53.700;10.252;2023-07-29T15:42:03;25.60;78.20
3186;DHT22;1604;53.700;10.252;2023-07-29T15:45:06;25.60;78.20
3186;DHT22;1604;53.700;10.252;2023-07-29T15:48:08;25.60;77.00
3186;DHT22;1604;53.700;10.252;2023-07-29T15:51:10;25.60;76.70
3186;DHT22;1604;53.700;10.252;2023-07-29T15:54:13;25.50;76.00
3186;DHT22;1604;53.700;10.252;2023-07-29T15:57:15;25.50;75.80
3186;DHT22;1604;53.700;10.252;2023-07-29T16:00:17;25.40;76.90
3186;DHT22;1604;53.700;10.252;2023-07-29T16:03:19;25.10;76.30
3186;DHT22;1604;53.700;10.252;2023-07-29T16:06:22;25.10;77.90
3186;DHT22;1604;53.700;10.252;2023-07-29T16:09:25;25.00;79.50
3186;DHT22;1604;53.700;10.252;2023-07-29T16:12:27;24.90;78.60
3186;DHT22;1604;53.700;10.252;2023-07-29T16:15:29;24.80;79.50
3186;DHT22;1604;53.700;10.252;2023-07-29T16:18:31;24.70;80.30
3186;DHT22;1604;53.700;10.252;2023-07-29T16:21:33;24.50;79.00
3186;DHT22;1604;53.700;10.252;2023-07-29T16:24:36;24.30;79.20
3186;DHT22;1604;53.700;10.252;2023-07-29T16:27:38;24.10;80.50
3186;DHT22;1604;53.700;10.252;2023-07-29T16:30:40;24.00;81.10
3186;DHT22;1604;53.700;10.252;2023-07-29T16:33:42;23.90;80.80
3186;DHT22;1604;53.700;10.252;2023-07-29T16:36:44;23.80;83.00
3186;DHT22;1604;53.700;10.252;2023-07-29T16:39:47;23.70;82.40
3186;DHT22;1604;53.700;10.252;2023-07-29T16:42:49;23.60;83.20
3186;DHT22;1604;53.700;10.252;2023-07-29T16:45:51;23.30;82.40
3186;DHT22;1604;53.700;10.252;2023-07-29T16:48:53;22.90;84.80
3186;DHT22;1604;53.700;10.252;2023-07-29T16:51:55;22.50;90.90
3186;DHT22;1604;53.700;10.252;2023-07-29T16:54:59;22.10;93.90
3186;DHT22;1604;53.700;10.252;2023-07-29T16:58:01;21.70;96.70
3186;DHT22;1604;53.700;10.252;2023-07-29T17:01:02;21.30;98.60
3186;DHT22;1604;53.700;10.252;2023-07-29T17:04:04;21.10;99.30
3186;DHT22;1604;53.700;10.252;2023-07-29T17:07:06;20.90;99.50
3186;DHT22;1604;53.700;10.252;2023-07-29T17:10:10;20.80;99.90
3186;DHT22;1604;53.700;10.252;2023-07-29T17:13:14;20.70;99.90
3186;DHT22;1604;53.700;10.252;2023-07-29T17:16:16;20.50;99.90
3186;DHT22;1604;53.700;10.252;2023-07-29T17:19:18;20.40;99.90
3186;DHT22;1604;53.700;10.252;2023-07-29T17:22:21;20.30;99.90
3186;DHT22;1604;53.700;10.252;2023-07-29T17:25:24;20.20;99.90
3186;DHT22;1604;53.700;10.252;2023-07-29T17:28:26;20.20;99.90
3186;DHT22;1604;53.700;10.252;2023-07-29T17:31:28;20.20;99.90
3186;DHT22;1604;53.700;10.252;2023-07-29T17:34:30;20.20;99.90
3186;DHT22;1604;53.700;10.252;2023-07-29T17:37:32;20.20;99.90
3186;DHT22;1604;53.700;10.252;2023-07-29T17:40:36;20.20;99.90
3186;DHT22;1604;53.700;10.252;2023-07-29T17:43:38;20.20;99.90
3186;DHT22;1604;53.700;10.252;2023-07-29T17:46:45;20.20;99.90
3186;DHT22;1604;53.700;10.252;2023-07-29T17:49:46;20.10;99.90
3186;DHT22;1604;53.700;10.252;2023-07-29T17:56:00;20.00;99.90
3186;DHT22;1604;53.700;10.252;2023-07-29T17:59:02;19.90;99.90
3186;DHT22;1604;53.700;10.252;2023-07-29T18:02:05;19.80;99.90
3186;DHT22;1604;53.700;10.252;2023-07-29T18:05:07;19.60;99.90
3186;DHT22;1604;53.700;10.252;2023-07-29T18:08:09;19.50;99.90
3186;DHT22;1604;53.700;10.252;2023-07-29T18:11:12;19.30;99.90
3186;DHT22;1604;53.700;10.252;2023-07-29T18:14:15;19.30;99.90
3186;DHT22;1604;53.700;10.252;2023-07-29T18:17:17;19.30;99.90
3186;DHT22;1604;53.700;10.252;2023-07-29T18:20:19;19.30;99.90
3186;DHT22;1604;53.700;10.252;2023-07-29T18:23:21;19.20;99.90
3186;DHT22;1604;53.700;10.252;2023-07-29T18:26:26;19.20;99.90
3186;DHT22;1604;53.700;10.252;2023-07-29T18:29:28;19.20;99.90
3186;DHT22;1604;53.700;10.252;2023-07-29T18:32:30;19.20;99.90
3186;DHT22;1604;53.700;10.252;2023-07-29T18:35:32;19.10;99.90
3186;DHT22;1604;53.700;10.252;2023-07-29T18:38:34;19.10;99.90
3186;DHT22;1604;53.700;10.252;2023-07-29T18:41:37;19.10;99.90
3186;DHT22;1604;53.700;10.252;2023-07-29T18:44:39;19.00;99.90
3186;DHT22;1604;53.700;10.252;2023-07-29T18:47:41;19.00;99.90
3186;DHT22;1604;53.700;10.252;2023-07-29T18:50:43;18.90;99.90
3186;DHT22;1604;53.700;10.252;2023-07-29T18:53:45;18.90;99.90
3186;DHT22;1604;53.700;10.252;2023-07-29T18:56:51;18.90;99.90
3186;DHT22;1604;53.700;10.252;2023-07-29T18:59:53;18.80;99.90
3186;DHT22;1604;53.700;10.252;2023-07-29T19:02:55;18.80;99.90
3186;DHT22;1604;53.700;10.252;2023-07-29T19:05:57;18.80;99.90
3186;DHT22;1604;53.700;10.252;2023-07-29T19:09:00;18.80;99.90
3186;DHT22;1604;53.700;10.252;2023-07-29T19:12:04;18.80;99.90
3186;DHT22;1604;53.700;10.252;2023-07-29T19:15:07;18.70;99.90
3186;DHT22;1604;53.700;10.252;2023-07-29T19:18:09;18.70;99.90
3186;DHT22;1604;53.700;10.252;2023-07-29T19:21:11;18.70;99.90
3186;DHT22;1604;53.700;10.252;2023-07-29T19:24:13;18.70;99.90
3186;DHT22;1604;53.700;10.252;2023-07-29T19:27:16;18.60;99.90
3186;DHT22;1604;53.700;10.252;2023-07-29T19:30:18;18.60;99.90
3186;DHT22;1604;53.700;10.252;2023-07-29T19:33:20;18.60;99.90
3186;DHT22;1604;53.700;10.252;2023-07-29T19:36:22;18.60;99.90
3186;DHT22;1604;53.700;10.252;2023-07-29T19:39:24;18.60;99.90
3186;DHT22;1604;53.700;10.252;2023-07-29T19:42:27;18.50;99.90